createdAt,value
2019-05-02T00:00:56.140Z,9.30
2019-05-02T00:03:28.643Z,9.20
2019-05-02T00:05:58.590Z,9.10
2019-05-02T00:08:32.780Z,9.10
2019-05-02T00:11:00.566Z,9.10
2019-05-02T00:13:30.434Z,9.10
2019-05-02T00:16:00.449Z,9.00
2019-05-02T00:18:31.967Z,9.10
2019-05-02T00:21:03.275Z,9.00
2019-05-02T00:23:33.256Z,9.00
2019-05-02T00:26:05.026Z,8.90
2019-05-02T00:28:34.898Z,8.90
2019-05-02T00:31:07.499Z,8.80
2019-05-02T00:33:36.785Z,8.80
2019-05-02T00:36:06.542Z,8.80
2019-05-02T00:38:38.344Z,8.70
2019-05-02T00:41:07.942Z,8.70
2019-05-02T00:43:37.746Z,8.70
2019-05-02T00:46:07.616Z,8.70
2019-05-02T00:48:42.464Z,8.60
2019-05-02T00:51:12.302Z,8.60
2019-05-02T00:53:44.398Z,8.60
2019-05-02T00:56:13.553Z,8.60
2019-05-02T00:58:43.347Z,8.60
2019-05-02T01:01:29.412Z,8.50
2019-05-02T01:04:06.270Z,8.50
2019-05-02T01:06:36.025Z,8.50
2019-05-02T01:09:11.001Z,8.40
2019-05-02T01:11:39.076Z,8.40
2019-05-02T01:14:08.894Z,8.50
2019-05-02T01:16:38.639Z,8.50
2019-05-02T01:19:12.218Z,8.50
2019-05-02T01:21:40.174Z,8.50
2019-05-02T01:24:10.051Z,8.50
2019-05-02T01:26:43.842Z,8.40
2019-05-02T01:29:24.997Z,8.30
2019-05-02T01:32:01.428Z,8.30
2019-05-02T01:34:38.323Z,8.30
2019-05-02T01:37:20.465Z,8.20
2019-05-02T01:39:44.726Z,8.20
2019-05-02T01:42:14.483Z,8.20
2019-05-02T01:44:44.236Z,8.20
2019-05-02T01:47:13.992Z,8.10
2019-05-02T01:49:43.782Z,8.10
2019-05-02T01:52:13.588Z,8.10
2019-05-02T01:54:45.831Z,8.10
2019-05-02T01:57:14.804Z,8.00
2019-05-02T01:59:46.462Z,8.00
2019-05-02T02:02:16.247Z,8.00
2019-05-02T02:04:46.054Z,7.90
2019-05-02T02:07:20.024Z,7.90
2019-05-02T02:09:49.232Z,7.90
2019-05-02T02:12:18.981Z,7.80
2019-05-02T02:14:53.458Z,7.80
2019-05-02T02:17:20.313Z,7.80
2019-05-02T02:19:54.665Z,7.80
2019-05-02T02:22:39.244Z,7.70
2019-05-02T02:25:25.099Z,7.70
2019-05-02T02:27:59.532Z,7.70
2019-05-02T02:30:26.747Z,7.60
2019-05-02T02:33:00.402Z,7.50
2019-05-02T02:35:28.194Z,7.50
2019-05-02T02:37:58.384Z,7.50
2019-05-02T02:40:33.584Z,7.50
2019-05-02T02:43:12.645Z,7.50
2019-05-02T02:45:51.782Z,7.50
2019-05-02T02:48:20.068Z,7.40
2019-05-02T02:50:49.826Z,7.50
2019-05-02T02:53:30.131Z,7.50
2019-05-02T02:56:03.913Z,7.50
2019-05-02T02:58:44.080Z,7.50
2019-05-02T03:01:05.053Z,7.50
2019-05-02T03:03:35.574Z,7.40
2019-05-02T03:06:08.035Z,7.40
2019-05-02T03:08:45.058Z,7.40
2019-05-02T03:11:10.793Z,7.40
2019-05-02T03:13:52.847Z,7.40
2019-05-02T03:16:21.155Z,7.30
2019-05-02T03:18:50.946Z,7.30
2019-05-02T03:21:22.547Z,7.30
2019-05-02T03:24:01.698Z,7.30
2019-05-02T03:26:24.167Z,7.20
2019-05-02T03:28:58.385Z,7.20
2019-05-02T03:31:30.172Z,7.20
2019-05-02T03:34:00.836Z,7.10
2019-05-02T03:36:35.746Z,7.10
2019-05-02T03:39:13.283Z,7.10
2019-05-02T03:41:34.674Z,7.10
2019-05-02T03:44:11.223Z,7.10
2019-05-02T03:46:35.933Z,7.10
2019-05-02T03:49:09.278Z,7.10
2019-05-02T03:51:37.245Z,7.10
2019-05-02T03:54:10.211Z,7.10
2019-05-02T03:56:38.554Z,7.10
2019-05-02T03:59:08.381Z,7.10
2019-05-02T04:01:41.187Z,7.10
2019-05-02T04:04:22.757Z,7.20
2019-05-02T04:06:54.980Z,7.10
2019-05-02T04:09:42.167Z,7.20
2019-05-02T04:12:15.516Z,7.20
2019-05-02T04:14:39.722Z,7.30
2019-05-02T04:17:10.376Z,7.40
2019-05-02T04:19:40.583Z,7.50
2019-05-02T04:22:12.155Z,7.60
2019-05-02T04:24:47.970Z,7.60
2019-05-02T04:27:14.062Z,7.60
2019-05-02T04:29:43.927Z,7.70
2019-05-02T04:32:14.524Z,7.70
2019-05-02T04:34:48.850Z,7.70
2019-05-02T04:37:16.188Z,7.70
2019-05-02T04:39:48.813Z,7.80
2019-05-02T04:42:22.081Z,7.80
2019-05-02T04:45:12.891Z,7.90
2019-05-02T04:47:21.950Z,8.00
2019-05-02T04:49:52.309Z,8.00
2019-05-02T04:52:22.232Z,8.10
2019-05-02T04:54:52.053Z,8.20
2019-05-02T04:57:29.236Z,8.20
2019-05-02T05:00:05.074Z,8.30
2019-05-02T05:02:34.096Z,8.40
2019-05-02T05:04:58.206Z,8.40
2019-05-02T05:07:31.170Z,8.50
2019-05-02T05:10:03.018Z,8.50
2019-05-02T05:12:42.577Z,8.60
2019-05-02T05:15:13.394Z,8.60
2019-05-02T05:17:43.931Z,8.70
2019-05-02T05:20:25.032Z,8.70
2019-05-02T05:22:54.926Z,8.80
2019-05-02T05:25:30.586Z,8.90
2019-05-02T05:28:05.601Z,8.90
2019-05-02T05:30:31.952Z,9.00
2019-05-02T05:33:01.796Z,9.00
2019-05-02T05:35:31.582Z,9.10
2019-05-02T05:38:01.427Z,9.20
2019-05-02T05:40:33.172Z,9.30
2019-05-02T05:43:14.174Z,9.30
2019-05-02T05:45:47.787Z,9.40
2019-05-02T05:48:05.961Z,9.50
2019-05-02T05:50:37.663Z,9.60
2019-05-02T05:53:07.973Z,9.70
2019-05-02T05:55:38.386Z,9.70
2019-05-02T05:58:15.246Z,9.80
2019-05-02T06:00:40.057Z,9.80
2019-05-02T06:03:14.149Z,9.90
2019-05-02T06:05:43.284Z,10.00
2019-05-02T06:08:13.940Z,10.20
2019-05-02T06:10:45.242Z,10.50
2019-05-02T06:13:15.176Z,10.80
2019-05-02T06:15:46.296Z,11.00
2019-05-02T06:18:16.196Z,11.20
2019-05-02T06:20:46.426Z,11.30
2019-05-02T06:23:16.336Z,11.30
2019-05-02T06:25:46.190Z,11.30
2019-05-02T06:28:16.026Z,11.40
2019-05-02T06:30:45.890Z,11.40
2019-05-02T06:33:15.648Z,11.50
2019-05-02T06:35:45.624Z,11.50
2019-05-02T06:38:15.491Z,11.50
2019-05-02T06:40:46.642Z,11.60
2019-05-02T06:43:16.738Z,11.60
2019-05-02T06:45:46.597Z,11.60
2019-05-02T06:48:18.994Z,11.70
2019-05-02T06:50:49.062Z,11.70
2019-05-02T06:53:25.780Z,11.70
2019-05-02T06:55:55.647Z,11.80
2019-05-02T06:58:25.513Z,11.80
2019-05-02T07:00:58.096Z,11.80
2019-05-02T07:03:27.703Z,11.90
2019-05-02T07:05:58.651Z,11.90
2019-05-02T07:08:29.314Z,12.00
2019-05-02T07:11:01.235Z,12.10
2019-05-02T07:13:30.774Z,12.10
2019-05-02T07:16:10.594Z,12.20
2019-05-02T07:18:49.618Z,12.20
2019-05-02T07:21:23.469Z,12.30
2019-05-02T07:23:53.504Z,12.40
2019-05-02T07:26:23.287Z,12.60
2019-05-02T07:28:53.374Z,12.70
2019-05-02T07:31:23.221Z,12.90
2019-05-02T07:33:53.182Z,13.00
2019-05-02T07:36:22.962Z,13.20
2019-05-02T07:38:57.518Z,13.30
2019-05-02T07:41:29.020Z,13.40
2019-05-02T07:43:56.219Z,13.40
2019-05-02T07:46:27.429Z,13.50
2019-05-02T07:48:57.196Z,13.60
2019-05-02T07:51:26.990Z,13.60
2019-05-02T07:53:56.906Z,13.70
2019-05-02T07:56:26.796Z,13.80
2019-05-02T07:58:56.633Z,13.90
2019-05-02T08:01:26.500Z,14.00
2019-05-02T08:04:02.777Z,14.10
2019-05-02T08:06:35.378Z,14.20
2019-05-02T08:09:01.625Z,14.20
2019-05-02T08:11:37.090Z,14.30
2019-05-02T08:14:04.477Z,14.40
2019-05-02T08:16:34.279Z,14.30
2019-05-02T08:19:05.371Z,14.30
2019-05-02T08:21:36.478Z,14.20
2019-05-02T08:24:06.265Z,14.20
2019-05-02T08:27:13.479Z,14.30
2019-05-02T08:29:43.461Z,14.30
2019-05-02T08:32:14.147Z,14.30
2019-05-02T08:34:46.226Z,14.30
2019-05-02T08:37:15.495Z,14.30
2019-05-02T08:39:45.305Z,14.40
2019-05-02T08:42:16.709Z,14.40
2019-05-02T08:44:51.133Z,14.30
2019-05-02T08:47:19.314Z,14.10
2019-05-02T08:49:54.353Z,14.00
2019-05-02T08:52:20.861Z,14.10
2019-05-02T08:54:50.772Z,14.00
2019-05-02T08:57:23.507Z,14.00
2019-05-02T08:59:55.458Z,14.00
2019-05-02T09:02:25.912Z,13.90
2019-05-02T09:04:58.697Z,13.90
2019-05-02T09:07:31.654Z,14.00
2019-05-02T09:10:00.279Z,14.00
2019-05-02T09:12:31.968Z,14.10
2019-05-02T09:15:02.706Z,14.20
2019-05-02T09:17:38.202Z,14.30
2019-05-02T09:20:14.990Z,14.50
2019-05-02T09:22:36.781Z,14.60
2019-05-02T09:25:07.419Z,14.80
2019-05-02T09:27:37.323Z,15.00
2019-05-02T09:30:08.067Z,15.10
2019-05-02T09:32:37.896Z,15.20
2019-05-02T09:35:07.711Z,15.40
2019-05-02T09:37:37.618Z,15.40
2019-05-02T09:40:14.661Z,15.40
2019-05-02T09:42:39.052Z,15.40
2019-05-02T09:45:12.263Z,15.30
2019-05-02T09:47:56.633Z,15.20
2019-05-02T09:50:20.665Z,15.30
2019-05-02T09:52:52.437Z,15.30
2019-05-02T09:55:22.742Z,15.30
2019-05-02T09:57:52.558Z,15.30
2019-05-02T10:00:49.140Z,15.30
2019-05-02T10:03:19.481Z,15.10
2019-05-02T10:05:52.756Z,15.00
2019-05-02T10:08:23.077Z,14.90
2019-05-02T10:10:53.114Z,14.90
2019-05-02T10:13:23.297Z,14.90
2019-05-02T10:15:53.181Z,15.00
2019-05-02T10:18:28.652Z,15.00
2019-05-02T10:20:54.872Z,15.00
2019-05-02T10:23:24.755Z,14.90
2019-05-02T10:25:54.670Z,14.80
2019-05-02T10:28:24.487Z,14.60
2019-05-02T10:30:56.597Z,14.50
2019-05-02T10:33:28.095Z,14.50
2019-05-02T10:35:57.440Z,14.40
2019-05-02T10:38:27.251Z,14.30
2019-05-02T10:41:01.692Z,14.30
2019-05-02T10:43:28.647Z,14.20
2019-05-02T10:46:03.949Z,14.20
2019-05-02T10:48:35.514Z,14.10
2019-05-02T10:51:25.994Z,14.10
2019-05-02T10:53:56.526Z,14.00
2019-05-02T10:56:26.446Z,13.90
2019-05-02T10:58:56.275Z,14.00
2019-05-02T11:01:27.711Z,14.10
2019-05-02T11:03:59.070Z,14.00
2019-05-02T11:06:32.409Z,14.10
2019-05-02T11:09:02.847Z,14.10
2019-05-02T11:11:33.969Z,14.10
2019-05-02T11:14:23.174Z,14.10
2019-05-02T11:17:01.797Z,14.10
2019-05-02T11:19:52.335Z,14.10
2019-05-02T11:22:22.790Z,14.20
2019-05-02T11:24:52.794Z,14.30
2019-05-02T11:27:22.652Z,14.50
2019-05-02T11:29:54.514Z,14.60
2019-05-02T11:32:24.280Z,14.70
2019-05-02T11:34:54.410Z,14.70
2019-05-02T11:37:24.250Z,14.60
2019-05-02T11:40:00.433Z,14.60
2019-05-02T11:42:27.214Z,14.60
2019-05-02T11:44:57.278Z,14.70
2019-05-02T11:47:27.033Z,14.70
2019-05-02T11:49:56.838Z,14.80
2019-05-02T11:52:27.344Z,15.00
2019-05-02T11:54:58.119Z,15.20
2019-05-02T11:57:30.412Z,15.50
2019-05-02T12:00:04.110Z,15.70
2019-05-02T12:02:58.105Z,15.90
2019-05-02T12:05:41.980Z,15.80
2019-05-02T12:08:12.334Z,15.60
2019-05-02T12:10:42.458Z,15.50
2019-05-02T12:13:15.964Z,15.50
2019-05-02T12:15:44.711Z,15.50
2019-05-02T12:18:14.715Z,15.70
2019-05-02T12:20:44.596Z,15.80
2019-05-02T12:23:14.473Z,15.90
2019-05-02T12:25:44.276Z,16.10
2019-05-02T12:28:14.150Z,16.20
2019-05-02T12:30:43.978Z,16.30
2019-05-02T12:33:14.236Z,16.40
2019-05-02T12:35:43.999Z,16.40
2019-05-02T12:38:13.804Z,16.40
2019-05-02T12:40:43.717Z,16.40
2019-05-02T12:43:13.507Z,16.50
2019-05-02T12:45:45.401Z,16.60
2019-05-02T12:48:15.289Z,16.80
2019-05-02T12:50:45.086Z,17.00
2019-05-02T12:53:14.996Z,17.10
2019-05-02T12:55:44.772Z,17.00
2019-05-02T12:58:14.752Z,17.00
2019-05-02T13:00:44.934Z,17.00
2019-05-02T13:03:32.444Z,17.00
2019-05-02T13:06:03.041Z,16.80
2019-05-02T13:08:34.626Z,16.90
2019-05-02T13:11:23.197Z,17.10
2019-05-02T13:13:53.580Z,17.20
2019-05-02T13:16:23.658Z,17.30
2019-05-02T13:18:57.323Z,17.40
2019-05-02T13:21:40.115Z,17.60
2019-05-02T13:24:16.210Z,17.80
2019-05-02T13:26:43.949Z,18.00
2019-05-02T13:29:14.315Z,18.00
2019-05-02T13:31:56.428Z,18.00
2019-05-02T13:34:55.516Z,18.00
2019-05-02T13:37:22.691Z,18.10
2019-05-02T13:40:11.823Z,18.10
2019-05-02T13:42:41.761Z,18.10
2019-05-02T13:45:23.041Z,17.90
2019-05-02T13:47:52.837Z,17.80
2019-05-02T13:50:29.235Z,17.60
2019-05-02T13:52:59.118Z,17.60
2019-05-02T13:55:33.486Z,17.70
2019-05-02T13:58:06.414Z,17.60
2019-05-02T14:00:44.676Z,17.30
2019-05-02T14:03:14.670Z,17.40
2019-05-02T14:05:50.799Z,17.50
2019-05-02T14:08:32.434Z,17.50
2019-05-02T14:11:18.032Z,17.60
2019-05-02T14:13:47.912Z,17.60
2019-05-02T14:16:17.814Z,17.70
2019-05-02T14:21:12.657Z,17.90
2019-05-02T14:23:43.379Z,18.10
2019-05-02T14:26:13.120Z,18.10
2019-05-02T14:28:43.305Z,17.90
2019-05-02T14:31:13.327Z,17.90
2019-05-02T14:33:44.907Z,17.90
2019-05-02T14:36:14.752Z,17.70
2019-05-02T14:38:44.655Z,17.70
2019-05-02T14:41:29.664Z,17.70
2019-05-02T14:43:59.149Z,17.70
2019-05-02T14:46:34.027Z,17.80
2019-05-02T14:49:02.561Z,17.90
2019-05-02T14:51:33.798Z,18.10
2019-05-02T14:54:08.101Z,18.10
2019-05-02T14:57:03.536Z,18.00
2019-05-02T14:59:33.379Z,17.90
2019-05-02T15:02:07.390Z,17.90
2019-05-02T15:04:44.362Z,17.80
2019-05-02T15:07:12.965Z,17.70
2019-05-02T15:09:42.972Z,17.60
2019-05-02T15:12:15.846Z,17.40
2019-05-02T15:14:44.349Z,17.30
2019-05-02T15:17:14.164Z,17.30
2019-05-02T15:19:44.026Z,17.30
2019-05-02T15:22:13.914Z,17.30
2019-05-02T15:24:43.700Z,17.20
2019-05-02T15:27:17.713Z,17.20
2019-05-02T15:29:44.992Z,17.20
2019-05-02T15:32:52.213Z,17.30
2019-05-02T15:35:57.187Z,17.40
2019-05-02T15:38:28.021Z,17.60
2019-05-02T15:40:59.218Z,17.60
2019-05-02T15:43:27.773Z,17.70
2019-05-02T15:45:57.632Z,17.70
2019-05-02T15:48:27.877Z,17.80
2019-05-02T15:51:00.159Z,17.80
2019-05-02T15:53:34.597Z,17.80
2019-05-02T15:56:04.516Z,17.70
2019-05-02T15:58:34.730Z,17.70
2019-05-02T16:01:36.753Z,17.80
2019-05-02T16:04:05.897Z,17.90
2019-05-02T16:06:36.057Z,17.90
2019-05-02T16:09:07.859Z,17.80
2019-05-02T16:11:37.762Z,17.60
2019-05-02T16:14:07.637Z,17.60
2019-05-02T16:16:41.783Z,17.60
2019-05-02T16:19:14.982Z,17.70
2019-05-02T16:21:52.076Z,17.70
2019-05-02T16:24:23.440Z,17.70
2019-05-02T16:26:56.927Z,17.70
2019-05-02T16:29:28.302Z,17.80
2019-05-02T16:32:05.280Z,17.70
2019-05-02T16:34:41.914Z,17.60
2019-05-02T16:37:16.257Z,17.50
2019-05-02T16:39:49.429Z,17.40
2019-05-02T16:42:15.085Z,17.20
2019-05-02T16:44:44.862Z,17.10
2019-05-02T16:47:14.669Z,17.00
2019-05-02T16:49:47.995Z,16.90
2019-05-02T16:52:16.263Z,16.70
2019-05-02T16:54:46.160Z,16.50
2019-05-02T16:57:17.515Z,16.40
2019-05-02T16:59:47.585Z,16.40
2019-05-02T17:02:17.448Z,16.30
2019-05-02T17:04:49.542Z,16.20
2019-05-02T17:07:27.738Z,16.20
2019-05-02T17:10:17.758Z,16.10
2019-05-02T17:12:55.021Z,15.90
2019-05-02T17:15:36.332Z,15.80
2019-05-02T17:18:12.619Z,15.80
2019-05-02T17:20:38.626Z,15.80
2019-05-02T17:23:08.475Z,15.70
2019-05-02T17:25:38.392Z,15.70
2019-05-02T17:28:10.564Z,15.60
2019-05-02T17:30:41.101Z,15.60
2019-05-02T17:33:12.801Z,15.50
2019-05-02T17:35:49.620Z,15.40
2019-05-02T17:38:14.300Z,15.40
2019-05-02T17:40:44.223Z,15.40
2019-05-02T17:43:13.980Z,15.30
2019-05-02T17:45:43.752Z,15.30
2019-05-02T17:48:16.364Z,15.30
2019-05-02T17:51:12.248Z,15.20
2019-05-02T17:53:49.302Z,15.10
2019-05-02T17:56:20.959Z,15.10
2019-05-02T17:58:53.444Z,15.00
2019-05-02T18:01:21.772Z,14.90
2019-05-02T18:03:52.077Z,14.80
2019-05-02T18:06:32.376Z,14.70
2019-05-02T18:08:55.222Z,14.60
2019-05-02T18:11:29.614Z,14.60
2019-05-02T18:13:56.605Z,14.60
2019-05-02T18:16:26.451Z,14.60
2019-05-02T18:18:56.240Z,14.50
2019-05-02T18:21:28.711Z,14.40
